Terminal Aerodrome Forecast
Issued by NWS Charleston, WV

Current Version | Previous Version | Graphics & Text | Print | Product List | Glossary On
Versions: 1 2 3 4 5 6 7 8 9 10 11 12 13 14 15 16 17 18 19 20 21 22 23 24 25 26 27 28
263
FTUS41 KRLX 171359 AAA
TAFEKN
TAF AMD
KEKN 171359Z 1714/1812 31003KT P6SM FEW030 SCT250
     FM180000 16004KT P6SM SCT250
     FM181000 18007KT P6SM OVC100=

USA.gov is the U.S. government's official web portal to all federal, state and local government web resources and services.